Time;durP1;ratioP1;P1;durP2;ratioP2;P2;SDS_P1;SDS_P2;PMS_P1;PMS_P2;Temp;Humidity;BMP_temperature;BMP_pressure;BME280_temperature;BME280_humidity;BME280_pressure;Samples;Min_cycle;Max_cycle;Signal;HPM_P1;HPM_P2
2024/01/09 00:02:19;;;;;;;1.25;0.95;;;-2.30;95.00;;;;;;4906966;29;20553;-55
2024/01/09 00:04:45;;;;;;;0.95;0.70;;;-2.50;94.90;;;;;;4906544;29;20180;-57
2024/01/09 00:07:10;;;;;;;4.83;3.80;;;-2.50;95.20;;;;;;4905574;29;20207;-57
2024/01/09 00:09:36;;;;;;;0.97;0.97;;;-2.30;95.10;;;;;;4905366;29;20580;-57
2024/01/09 00:12:02;;;;;;;1.77;1.77;;;-2.20;95.10;;;;;;4905868;29;20478;-57
2024/01/09 00:14:28;;;;;;;2.65;2.40;;;-2.10;94.60;;;;;;4890175;29;20761;-56
2024/01/09 00:16:54;;;;;;;3.80;3.50;;;-2.60;94.30;;;;;;4905225;29;20299;-57
2024/01/09 00:19:21;;;;;;;2.95;1.75;;;-3.00;95.10;;;;;;4905785;29;20257;-57
2024/01/09 00:21:48;;;;;;;1.48;1.48;;;-3.00;95.60;;;;;;4906080;29;20561;-57
2024/01/09 00:24:15;;;;;;;0.60;0.60;;;-2.80;95.70;;;;;;4905213;29;20191;-57
2024/01/09 00:26:45;;;;;;;0.80;0.80;;;-2.60;95.30;;;;;;4889587;29;20234;-58
2024/01/09 00:29:10;;;;;;;0.55;0.55;;;-2.50;95.40;;;;;;4907020;29;20187;-57
2024/01/09 00:31:36;;;;;;;0.97;0.60;;;-2.50;95.10;;;;;;4904415;29;20172;-57
2024/01/09 00:34:02;;;;;;;2.40;2.30;;;-2.40;95.00;;;;;;4905616;29;20198;-57
2024/01/09 00:36:28;;;;;;;5.50;3.20;;;-2.20;94.90;;;;;;4906473;29;20416;-57
2024/01/09 00:38:53;;;;;;;4.63;1.93;;;-1.60;94.70;;;;;;4904623;29;20176;-56
2024/01/09 00:41:19;;;;;;;0.40;0.40;;;-2.40;94.50;;;;;;4905935;29;20171;-57
2024/01/09 00:43:46;;;;;;;1.23;1.13;;;-3.00;95.10;;;;;;4906273;29;20172;-57
2024/01/09 00:46:12;;;;;;;0.30;0.30;;;-3.00;95.90;;;;;;4904605;29;20191;-56
2024/01/09 00:48:37;;;;;;;2.00;1.90;;;-2.70;95.80;;;;;;4906546;29;20203;-57
2024/01/09 00:51:03;;;;;;;4.83;2.07;;;-2.90;96.00;;;;;;4905205;29;20319;-57
2024/01/09 00:53:29;;;;;;;11.90;2.78;;;-2.60;96.00;;;;;;4905128;29;20191;-57
2024/01/09 00:55:55;;;;;;;2.53;2.37;;;-2.40;95.60;;;;;;4906822;29;20186;-57
2024/01/09 00:58:21;;;;;;;1.15;1.15;;;-2.20;95.10;;;;;;4905027;29;20191;-56
2024/01/09 01:00:47;;;;;;;1.97;1.90;;;-2.10;95.10;;;;;;4904601;29;20232;-58
2024/01/09 01:03:14;;;;;;;0.50;0.50;;;-2.00;94.70;;;;;;4906296;29;20253;-57
2024/01/09 01:05:40;;;;;;;0.88;0.88;;;-2.10;94.30;;;;;;4905341;29;20191;-59
2024/01/09 01:08:06;;;;;;;1.83;1.73;;;-2.10;94.30;;;;;;4904765;29;20221;-56
2024/01/09 01:10:31;;;;;;;0.70;0.70;;;-2.20;94.20;;;;;;4906275;29;20187;-57
2024/01/09 01:12:57;;;;;;;4.23;1.67;;;-2.10;94.30;;;;;;4904308;29;20415;-56
2024/01/09 01:15:25;;;;;;;7.67;1.73;;;-2.10;94.20;;;;;;4905530;29;20179;-57
2024/01/09 01:17:51;;;;;;;1.25;1.25;;;-2.20;94.00;;;;;;4906259;29;20206;-57
2024/01/09 01:20:16;;;;;;;0.60;0.60;;;-2.20;94.40;;;;;;4903573;29;20178;-57
2024/01/09 01:22:42;;;;;;;0.90;0.90;;;-2.10;94.50;;;;;;4905149;29;20801;-56
2024/01/09 01:25:09;;;;;;;1.57;1.47;;;-2.00;94.50;;;;;;4904968;29;20302;-57
2024/01/09 01:27:34;;;;;;;2.90;2.80;;;-1.90;94.00;;;;;;4906069;29;20221;-57
2024/01/09 01:30:00;;;;;;;3.33;2.70;;;-2.10;93.50;;;;;;4904613;29;20418;-56
2024/01/09 01:32:25;;;;;;;5.80;2.27;;;-2.30;93.70;;;;;;4904809;29;20743;-57
2024/01/09 01:34:51;;;;;;;0.90;0.90;;;-2.40;94.20;;;;;;4906275;29;20590;-57
2024/01/09 01:37:17;;;;;;;0.53;0.53;;;-2.40;94.40;;;;;;4904436;29;20192;-55
2024/01/09 01:39:42;;;;;;;2.23;1.80;;;-2.30;94.50;;;;;;4905467;29;20171;-56
2024/01/09 01:42:08;;;;;;;2.43;2.23;;;-2.30;94.60;;;;;;4905447;29;20167;-56
2024/01/09 01:44:36;;;;;;;1.98;1.88;;;-2.30;94.50;;;;;;4904339;29;20176;-57
2024/01/09 01:47:02;;;;;;;7.78;2.22;;;-2.30;94.70;;;;;;4905403;29;20211;-57
2024/01/09 01:49:28;;;;;;;2.50;1.47;;;-2.20;94.40;;;;;;4905872;29;20643;-56
2024/01/09 01:51:53;;;;;;;0.95;0.90;;;-2.40;94.20;;;;;;4903990;29;20423;-57
2024/01/09 01:54:21;;;;;;;0.50;0.50;;;-2.40;94.70;;;;;;4905798;29;20576;-57
2024/01/09 01:56:47;;;;;;;4.72;4.47;;;-2.60;94.50;;;;;;4905513;29;20555;-56
2024/01/09 01:59:16;;;;;;;4.35;2.28;;;-2.70;94.80;;;;;;4904046;29;20194;-57
2024/01/09 02:01:43;;;;;;;5.07;0.77;;;-2.70;95.20;;;;;;4904986;29;20191;-56
2024/01/09 02:04:12;;;;;;;2.00;1.90;;;-2.60;95.30;;;;;;4904246;29;20187;-58
2024/01/09 02:06:38;;;;;;;1.98;1.88;;;-2.40;95.10;;;;;;4904280;29;20172;-57
2024/01/09 02:09:04;;;;;;;0.70;0.70;;;-2.50;95.00;;;;;;4905725;29;20187;-57
2024/01/09 02:11:31;;;;;;;1.43;1.43;;;-2.40;95.20;;;;;;4909136;29;20191;-57
2024/01/09 02:13:58;;;;;;;0.60;0.60;;;-2.30;94.70;;;;;;4907516;29;20207;-57
2024/01/09 02:16:24;;;;;;;2.05;1.95;;;-2.20;94.50;;;;;;4908811;29;20296;-57
2024/01/09 02:18:49;;;;;;;1.00;1.00;;;-2.20;94.40;;;;;;4909124;29;20192;-57
2024/01/09 02:21:15;;;;;;;1.07;1.07;;;-2.00;94.20;;;;;;4907229;29;20418;-57
2024/01/09 02:23:40;;;;;;;1.80;1.20;;;-2.20;93.90;;;;;;4908926;29;20175;-55
2024/01/09 02:26:09;;;;;;;2.13;1.93;;;-2.60;94.00;;;;;;4908692;29;20211;-57
2024/01/09 02:28:46;;;;;;;3.17;3.05;;;-2.50;94.50;;;;;;4907158;29;20211;-57
2024/01/09 02:31:13;;;;;;;3.25;2.70;;;-2.60;94.50;;;;;;4907141;29;20184;-57
2024/01/09 02:33:40;;;;;;;1.33;1.33;;;-2.50;94.80;;;;;;4908975;29;20195;-57
2024/01/09 02:36:06;;;;;;;2.28;2.17;;;-2.50;94.60;;;;;;4908530;29;20272;-57
2024/01/09 02:38:31;;;;;;;2.07;2.07;;;-2.50;94.70;;;;;;4907182;29;20588;-56
2024/01/09 02:40:57;;;;;;;1.30;1.27;;;-2.50;94.80;;;;;;4906947;29;20423;-57
2024/01/09 02:43:23;;;;;;;0.70;0.70;;;-2.50;94.40;;;;;;4908218;29;20224;-57
2024/01/09 02:45:48;;;;;;;1.33;1.33;;;-2.50;94.20;;;;;;4908759;29;20458;-56
2024/01/09 02:48:14;;;;;;;3.40;1.20;;;-2.60;94.30;;;;;;4907077;29;20192;-57
2024/01/09 02:50:41;;;;;;;1.98;1.88;;;-2.60;94.70;;;;;;4908367;29;20177;-57
2024/01/09 02:53:06;;;;;;;0.40;0.40;;;-2.70;94.60;;;;;;4908055;29;20186;-57
2024/01/09 02:55:32;;;;;;;1.90;1.80;;;-2.50;94.60;;;;;;4906739;29;20613;-57
2024/01/09 02:57:58;;;;;;;1.40;1.00;;;-2.40;94.60;;;;;;4908695;29;20194;-55
2024/01/09 03:00:24;;;;;;;4.93;2.90;;;-2.40;94.20;;;;;;4907538;29;20246;-57
2024/01/09 03:02:49;;;;;;;5.40;1.98;;;-2.50;94.10;;;;;;4906937;29;20182;-57
2024/01/09 03:05:15;;;;;;;1.10;1.07;;;-2.70;94.40;;;;;;4908651;29;20183;-57
2024/01/09 03:07:41;;;;;;;2.10;1.20;;;-2.70;94.60;;;;;;4907233;29;20688;-56
2024/01/09 03:10:07;;;;;;;8.53;3.30;;;-2.60;94.50;;;;;;4906073;29;20186;-56
2024/01/09 03:12:33;;;;;;;2.25;2.15;;;-2.50;94.40;;;;;;4908746;29;20179;-59
2024/01/09 03:14:58;;;;;;;1.90;1.87;;;-2.50;94.30;;;;;;4907173;29;20219;-56
2024/01/09 03:17:24;;;;;;;2.20;1.47;;;-2.50;94.30;;;;;;4907585;29;20733;-57
2024/01/09 03:19:51;;;;;;;0.98;0.98;;;-2.50;94.20;;;;;;4908199;29;20227;-57
2024/01/09 03:22:16;;;;;;;1.50;1.13;;;-2.40;94.30;;;;;;4906205;29;20654;-57
2024/01/09 03:24:42;;;;;;;1.27;1.10;;;-2.30;94.20;;;;;;4907595;29;20193;-57
2024/01/09 03:27:08;;;;;;;4.33;1.17;;;-2.30;94.00;;;;;;4917195;29;20655;-58
2024/01/09 03:29:33;;;;;;;1.23;1.23;;;-2.20;94.00;;;;;;4917190;29;20198;-57
2024/01/09 03:31:59;;;;;;;1.57;1.47;;;-2.10;93.90;;;;;;4916910;29;20178;-57
2024/01/09 03:34:25;;;;;;;10.10;2.43;;;-2.20;93.70;;;;;;4916924;29;20195;-56
2024/01/09 03:36:51;;;;;;;0.47;0.47;;;-2.20;93.80;;;;;;4916930;29;20442;-57
2024/01/09 03:39:16;;;;;;;1.27;1.27;;;-2.50;93.50;;;;;;4916939;29;20197;-56
2024/01/09 03:41:42;;;;;;;4.83;3.53;;;-2.70;93.80;;;;;;4916784;29;20218;-56
2024/01/09 03:44:09;;;;;;;3.00;2.83;;;-2.60;94.30;;;;;;4917067;29;20733;-57
2024/01/09 03:46:35;;;;;;;1.42;1.33;;;-2.60;94.10;;;;;;4916897;29;20249;-56
2024/01/09 03:49:00;;;;;;;2.83;2.57;;;-2.60;94.10;;;;;;4916670;29;20187;-57
2024/01/09 03:51:26;;;;;;;3.90;2.53;;;-2.50;94.20;;;;;;4916569;29;20178;-57
2024/01/09 03:53:52;;;;;;;1.50;1.47;;;-2.40;94.10;;;;;;4916685;29;20477;-57
2024/01/09 03:56:18;;;;;;;1.60;1.50;;;-2.50;94.00;;;;;;4916689;29;20645;-57
2024/01/09 03:58:44;;;;;;;2.87;2.67;;;-2.60;94.10;;;;;;4916619;29;20427;-57
2024/01/09 04:01:10;;;;;;;1.77;1.67;;;-2.60;94.10;;;;;;4916355;29;20180;-57
2024/01/09 04:03:36;;;;;;;6.22;2.58;;;-2.70;94.10;;;;;;4916423;29;20593;-57
2024/01/09 04:06:02;;;;;;;1.43;1.33;;;-2.70;94.10;;;;;;4916552;29;20183;-57
2024/01/09 04:08:28;;;;;;;2.70;2.00;;;-2.70;94.00;;;;;;4916334;29;20203;-57
2024/01/09 04:10:54;;;;;;;1.23;1.17;;;-2.60;94.20;;;;;;4916122;29;20181;-58
2024/01/09 04:13:20;;;;;;;3.50;3.07;;;-2.50;94.10;;;;;;4916355;29;20565;-56
2024/01/09 04:15:45;;;;;;;4.43;4.03;;;-2.60;93.80;;;;;;4916343;29;20209;-58
2024/01/09 04:18:12;;;;;;;1.87;1.87;;;-2.70;93.70;;;;;;4916048;29;20427;-57
2024/01/09 04:20:39;;;;;;;2.35;2.13;;;-2.70;94.00;;;;;;4916143;29;20167;-57
2024/01/09 04:23:05;;;;;;;2.22;1.67;;;-2.70;93.70;;;;;;4916071;29;20225;-56
2024/01/09 04:25:31;;;;;;;4.47;4.28;;;-2.90;93.70;;;;;;4916138;29;20178;-56
2024/01/09 04:27:57;;;;;;;2.07;1.93;;;-2.90;93.70;;;;;;4916104;29;20714;-56
2024/01/09 04:30:22;;;;;;;6.83;3.27;;;-2.80;93.70;;;;;;4916035;29;20167;-56
2024/01/09 04:32:48;;;;;;;1.60;1.50;;;-2.70;93.60;;;;;;4915334;29;20177;-55
2024/01/09 04:35:14;;;;;;;1.50;1.40;;;-2.70;93.60;;;;;;4915986;29;20230;-56
2024/01/09 04:37:39;;;;;;;2.77;2.60;;;-2.70;93.50;;;;;;4916105;29;20195;-55
2024/01/09 04:40:06;;;;;;;1.03;1.03;;;-2.70;93.20;;;;;;4916368;29;20633;-57
2024/01/09 04:42:31;;;;;;;4.45;2.35;;;-2.80;93.10;;;;;;4915821;29;20602;-56
2024/01/09 04:44:57;;;;;;;1.33;0.67;;;-3.00;93.40;;;;;;4915881;29;20186;-56
2024/01/09 04:47:22;;;;;;;3.13;2.83;;;-2.90;93.80;;;;;;4915629;29;20273;-57
2024/01/09 04:49:48;;;;;;;3.27;2.97;;;-2.90;93.60;;;;;;4915775;29;20175;-57
2024/01/09 04:52:14;;;;;;;1.23;1.23;;;-3.00;93.50;;;;;;4915521;29;20175;-57
2024/01/09 04:54:40;;;;;;;1.80;1.70;;;-3.00;93.60;;;;;;4915727;29;20207;-56
2024/01/09 04:57:06;;;;;;;2.97;1.90;;;-2.90;93.80;;;;;;4915578;29;20711;-57
2024/01/09 04:59:31;;;;;;;3.07;2.40;;;-3.10;93.60;;;;;;4915812;29;20202;-56
2024/01/09 05:02:00;;;;;;;2.67;2.57;;;-3.10;93.80;;;;;;4915260;29;20168;-57
2024/01/09 05:04:26;;;;;;;3.63;3.33;;;-3.10;93.60;;;;;;4915963;29;20661;-57
2024/01/09 05:06:51;;;;;;;1.80;1.70;;;-3.00;93.90;;;;;;4915507;29;20213;-57
2024/01/09 05:09:17;;;;;;;1.27;1.27;;;-2.90;93.60;;;;;;4915556;29;20175;-57
2024/01/09 05:11:43;;;;;;;2.63;2.53;;;-3.00;93.50;;;;;;4915293;29;20187;-57
2024/01/09 05:14:08;;;;;;;2.20;1.20;;;-2.90;93.50;;;;;;4915480;29;20206;-57
2024/01/09 05:16:34;;;;;;;3.23;2.20;;;-2.90;93.50;;;;;;4915215;29;20971;-57
2024/01/09 05:19:00;;;;;;;2.03;1.88;;;-2.90;93.50;;;;;;4915617;29;20178;-57
2024/01/09 05:21:26;;;;;;;1.63;1.53;;;-2.80;93.10;;;;;;4915262;29;20666;-57
2024/01/09 05:23:51;;;;;;;3.80;3.57;;;-2.90;93.00;;;;;;4915404;29;20560;-57
2024/01/09 05:26:17;;;;;;;8.83;2.07;;;-3.00;93.30;;;;;;4915400;29;20175;-57
2024/01/09 05:28:42;;;;;;;3.40;3.20;;;-3.10;93.00;;;;;;4915223;29;20210;-57
2024/01/09 05:31:08;;;;;;;2.10;2.00;;;-3.10;93.00;;;;;;4914942;29;20218;-57
2024/01/09 05:33:35;;;;;;;2.03;1.93;;;-3.10;93.10;;;;;;4915222;29;20241;-56
2024/01/09 05:36:01;;;;;;;3.00;2.72;;;-3.10;93.20;;;;;;4915424;29;20179;-57
2024/01/09 05:38:29;;;;;;;0.50;0.40;;;-3.20;93.50;;;;;;4915198;29;20572;-57
2024/01/09 05:40:55;;;;;;;6.63;2.28;;;-3.20;93.20;;;;;;4914935;29;20186;-56
2024/01/09 05:43:20;;;;;;;3.10;2.43;;;-3.50;93.50;;;;;;4915194;29;20178;-57
2024/01/09 05:45:46;;;;;;;1.80;1.70;;;-3.70;93.80;;;;;;4918384;29;20531;-56
2024/01/09 05:48:11;;;;;;;1.00;0.97;;;-3.80;93.90;;;;;;4918960;29;20230;-57
2024/01/09 05:50:37;;;;;;;0.97;0.97;;;-3.90;93.90;;;;;;4918871;29;20171;-56
2024/01/09 05:53:03;;;;;;;1.80;1.70;;;-4.10;94.20;;;;;;4918781;29;20167;-57
2024/01/09 05:55:28;;;;;;;0.70;0.70;;;-4.00;94.40;;;;;;4918775;29;20213;-57
2024/01/09 05:57:54;;;;;;;1.10;1.10;;;-3.80;94.30;;;;;;4918869;29;20191;-57
2024/01/09 06:00:20;;;;;;;0.73;0.73;;;-3.60;93.90;;;;;;4918520;29;20175;-57
2024/01/09 06:02:48;;;;;;;5.03;4.60;;;-3.70;93.60;;;;;;4918749;29;20411;-57
2024/01/09 06:05:14;;;;;;;1.80;1.15;;;-4.10;93.90;;;;;;4918761;29;20545;-57
2024/01/09 06:07:42;;;;;;;0.77;0.77;;;-3.90;94.40;;;;;;4918760;29;20274;-57
2024/01/09 06:10:09;;;;;;;5.00;1.50;;;-3.90;94.10;;;;;;4918399;29;20167;-57
2024/01/09 06:12:34;;;;;;;1.92;1.15;;;-3.80;93.90;;;;;;4918405;29;20238;-57
2024/01/09 06:15:00;;;;;;;1.50;1.40;;;-3.80;94.20;;;;;;4918396;29;20198;-57
2024/01/09 06:17:26;;;;;;;0.40;0.40;;;-3.90;94.00;;;;;;4918481;29;20245;-57
2024/01/09 06:19:51;;;;;;;1.07;1.07;;;-4.30;94.50;;;;;;4918443;29;20972;-57
2024/01/09 06:22:17;;;;;;;4.73;3.00;;;-4.30;94.70;;;;;;4918250;29;20218;-56
2024/01/09 06:24:43;;;;;;;4.73;2.73;;;-4.20;95.00;;;;;;4918375;29;20680;-57
2024/01/09 06:27:08;;;;;;;1.90;1.80;;;-4.00;94.90;;;;;;4918137;29;20214;-57
2024/01/09 06:29:34;;;;;;;1.63;1.60;;;-4.10;95.00;;;;;;4918217;29;20174;-57
2024/01/09 06:31:59;;;;;;;0.70;0.70;;;-4.00;95.10;;;;;;4917933;29;20661;-58
2024/01/09 06:34:26;;;;;;;4.73;4.43;;;-3.90;95.20;;;;;;4909549;29;20287;-58
2024/01/09 06:36:52;;;;;;;0.85;0.85;;;-3.90;94.90;;;;;;4912590;29;20753;-57
2024/01/09 06:39:18;;;;;;;3.17;3.00;;;-3.70;95.00;;;;;;4918165;29;20274;-57
2024/01/09 06:41:44;;;;;;;2.90;1.25;;;-3.60;94.40;;;;;;4917794;29;20193;-57
2024/01/09 06:44:10;;;;;;;2.20;2.10;;;-3.40;93.80;;;;;;4918127;29;20665;-57
2024/01/09 06:46:35;;;;;;;1.23;1.23;;;-3.60;93.30;;;;;;4912020;29;20219;-57
2024/01/09 06:49:01;;;;;;;2.53;2.37;;;-3.90;93.50;;;;;;4899122;29;20185;-57
2024/01/09 06:51:28;;;;;;;3.53;2.30;;;-3.90;94.00;;;;;;4898845;29;20415;-57
2024/01/09 06:53:54;;;;;;;5.68;3.72;;;-4.00;94.10;;;;;;4899076;29;20448;-58
2024/01/09 06:56:20;;;;;;;3.33;3.13;;;-4.10;94.50;;;;;;4898740;29;20239;-58
2024/01/09 06:58:46;;;;;;;1.73;0.93;;;-4.00;94.40;;;;;;4898736;29;21086;-57
2024/01/09 07:01:12;;;;;;;2.03;1.93;;;-4.00;94.20;;;;;;4898657;29;20179;-57
2024/01/09 07:03:38;;;;;;;0.90;0.90;;;-4.00;94.40;;;;;;4898999;29;20258;-57
2024/01/09 07:06:04;;;;;;;0.90;0.90;;;-3.90;94.50;;;;;;4898735;29;20262;-57
2024/01/09 07:08:29;;;;;;;3.00;2.90;;;-3.80;94.30;;;;;;4898700;29;20229;-57
2024/01/09 07:10:56;;;;;;;0.67;0.67;;;-3.70;94.20;;;;;;4898253;29;20561;-57
2024/01/09 07:13:23;;;;;;;1.23;1.23;;;-3.50;94.10;;;;;;4898738;29;20190;-57
2024/01/09 07:15:49;;;;;;;2.88;2.67;;;-3.30;94.00;;;;;;4898664;29;20681;-57
2024/01/09 07:18:15;;;;;;;1.50;1.50;;;-3.30;93.70;;;;;;4898513;29;20198;-57
2024/01/09 07:20:42;;;;;;;2.05;1.77;;;-3.20;93.80;;;;;;4898440;29;20206;-58
2024/01/09 07:23:08;;;;;;;5.50;2.85;;;-3.20;93.40;;;;;;4898442;29;20270;-57
2024/01/09 07:25:33;;;;;;;0.50;0.50;;;-3.10;93.60;;;;;;4898500;29;20612;-57
2024/01/09 07:27:59;;;;;;;2.00;1.90;;;-3.10;93.70;;;;;;4898156;29;20462;-57
2024/01/09 07:30:25;;;;;;;0.73;0.73;;;-3.10;93.40;;;;;;4898245;29;20199;-58
2024/01/09 07:32:51;;;;;;;3.60;3.40;;;-3.10;93.20;;;;;;4898281;29;20685;-58
2024/01/09 07:35:16;;;;;;;2.80;2.70;;;-3.10;93.00;;;;;;4898204;29;20203;-58
2024/01/09 07:37:42;;;;;;;2.83;1.50;;;-3.10;93.00;;;;;;4898251;29;20198;-57
2024/01/09 07:40:09;;;;;;;0.90;0.90;;;-3.00;93.10;;;;;;4897919;29;20412;-57
2024/01/09 07:42:35;;;;;;;7.18;3.58;;;-3.00;93.10;;;;;;4897945;29;20203;-57
2024/01/09 07:45:01;;;;;;;2.47;2.27;;;-3.00;93.50;;;;;;4898057;29;20211;-57
2024/01/09 07:47:26;;;;;;;1.60;1.50;;;-2.90;93.50;;;;;;4897833;29;20571;-58
2024/01/09 07:49:52;;;;;;;0.80;0.80;;;-2.80;93.40;;;;;;4898002;29;20184;-57
2024/01/09 07:52:18;;;;;;;1.10;1.10;;;-2.70;93.50;;;;;;4897628;29;20202;-57
2024/01/09 07:54:44;;;;;;;5.13;4.65;;;-2.60;93.30;;;;;;4898322;29;20199;-57
2024/01/09 07:57:10;;;;;;;2.17;1.97;;;-2.50;93.20;;;;;;4897804;29;20203;-58
2024/01/09 07:59:35;;;;;;;3.03;2.40;;;-2.50;92.70;;;;;;4897919;29;20223;-58
2024/01/09 08:02:01;;;;;;;1.07;0.97;;;-2.70;92.80;;;;;;4897536;29;20586;-58
2024/01/09 08:04:30;;;;;;;0.95;0.95;;;-3.10;92.80;;;;;;4897697;29;20180;-57
2024/01/09 08:06:56;;;;;;;1.88;1.88;;;-3.00;93.60;;;;;;4896856;29;20195;-58
2024/01/09 08:09:21;;;;;;;2.73;1.73;;;-2.80;93.40;;;;;;4897477;29;20576;-58
2024/01/09 08:11:47;;;;;;;1.87;1.77;;;-2.80;93.30;;;;;;4897349;29;20215;-58
2024/01/09 08:14:13;;;;;;;2.03;1.93;;;-2.70;93.20;;;;;;4897473;29;20215;-57
2024/01/09 08:16:40;;;;;;;1.10;1.10;;;-2.60;93.10;;;;;;4897518;29;20654;-57
2024/01/09 08:19:07;;;;;;;1.90;1.80;;;-2.40;93.00;;;;;;4897458;29;20191;-58
2024/01/09 08:21:37;;;;;;;1.50;1.40;;;-2.50;92.70;;;;;;4891795;29;20339;-56
2024/01/09 08:24:03;;;;;;;3.05;2.80;;;-2.50;92.50;;;;;;4897253;29;20187;-56
2024/01/09 08:26:29;;;;;;;0.40;0.40;;;-2.50;92.50;;;;;;4897137;29;20179;-56
2024/01/09 08:28:56;;;;;;;5.55;2.45;;;-2.50;92.60;;;;;;4897259;29;20566;-56
2024/01/09 08:31:22;;;;;;;1.95;1.85;;;-2.40;92.60;;;;;;4896841;29;20556;-57
2024/01/09 08:33:47;;;;;;;1.63;1.63;;;-2.40;92.30;;;;;;4897155;29;20521;-56
2024/01/09 08:36:14;;;;;;;2.07;1.97;;;-2.60;92.50;;;;;;4897303;29;20184;-56
2024/01/09 08:38:40;;;;;;;1.10;1.05;;;-2.50;92.80;;;;;;4896908;29;20200;-56
2024/01/09 08:41:06;;;;;;;0.97;0.93;;;-2.60;92.60;;;;;;4896746;29;20184;-57
2024/01/09 08:43:31;;;;;;;1.53;1.53;;;-2.80;92.90;;;;;;4897129;29;20175;-56
2024/01/09 08:45:57;;;;;;;4.63;1.90;;;-2.70;93.20;;;;;;4897099;29;20247;-56
2024/01/09 08:48:23;;;;;;;2.83;2.70;;;-2.50;93.20;;;;;;4896931;29;20204;-57
2024/01/09 08:50:49;;;;;;;3.27;2.57;;;-2.30;93.20;;;;;;4896665;29;20833;-56
2024/01/09 08:53:15;;;;;;;3.53;1.70;;;-2.30;93.00;;;;;;4896737;29;20254;-56
2024/01/09 08:55:41;;;;;;;0.80;0.80;;;-2.20;92.80;;;;;;4896866;29;20926;-56
2024/01/09 08:58:06;;;;;;;2.05;0.80;;;-2.20;92.80;;;;;;4896708;29;20509;-56
2024/01/09 09:00:32;;;;;;;1.50;1.13;;;-2.10;92.60;;;;;;4896628;29;20190;-57
2024/01/09 09:02:59;;;;;;;2.47;2.37;;;-2.20;92.30;;;;;;4896619;29;20203;-56
2024/01/09 09:05:24;;;;;;;1.73;1.60;;;-2.30;92.70;;;;;;4897195;29;20231;-56
2024/01/09 09:07:50;;;;;;;1.90;1.90;;;-2.20;92.80;;;;;;4896505;29;20666;-56
2024/01/09 09:10:17;;;;;;;1.50;1.50;;;-2.20;92.60;;;;;;4896420;29;20176;-56
2024/01/09 09:12:42;;;;;;;2.70;1.98;;;-2.10;92.90;;;;;;4896598;29;20596;-56
2024/01/09 09:15:08;;;;;;;0.70;0.70;;;-2.20;92.80;;;;;;4896482;29;20204;-56
2024/01/09 09:17:34;;;;;;;0.50;0.50;;;-2.20;92.70;;;;;;4896391;29;20447;-56
2024/01/09 09:20:00;;;;;;;0.50;0.50;;;-2.20;92.80;;;;;;4896343;29;20412;-56
2024/01/09 09:22:26;;;;;;;2.60;1.93;;;-2.20;92.80;;;;;;4896251;29;20416;-57
2024/01/09 09:24:55;;;;;;;0.97;0.97;;;-2.50;92.60;;;;;;4896679;29;20419;-56
2024/01/09 09:27:21;;;;;;;1.73;1.70;;;-2.60;93.30;;;;;;4896530;29;20309;-56
2024/01/09 09:29:47;;;;;;;1.53;1.53;;;-2.50;93.20;;;;;;4896508;29;20327;-56
2024/01/09 09:32:12;;;;;;;0.55;0.55;;;-2.30;93.30;;;;;;4896230;29;20180;-57
2024/01/09 09:34:40;;;;;;;1.03;0.93;;;-2.10;93.10;;;;;;4896226;29;20729;-57
2024/01/09 09:37:06;;;;;;;0.98;0.98;;;-2.00;93.10;;;;;;4896331;29;20472;-56
2024/01/09 09:39:31;;;;;;;3.53;3.40;;;-2.20;92.90;;;;;;4896280;29;20183;-56
2024/01/09 09:41:57;;;;;;;1.43;1.33;;;-2.20;93.10;;;;;;4896091;29;20787;-56
2024/01/09 09:44:24;;;;;;;3.57;2.67;;;-2.20;93.20;;;;;;4896268;29;20258;-54
2024/01/09 09:46:51;;;;;;;0.50;0.50;;;-2.20;93.10;;;;;;4896112;29;20443;-56
2024/01/09 09:49:20;;;;;;;0.50;0.50;;;-2.10;93.40;;;;;;4896266;29;20250;-56
2024/01/09 09:51:47;;;;;;;1.38;1.27;;;-2.00;93.20;;;;;;4896229;29;20188;-56
2024/01/09 09:54:14;;;;;;;1.25;1.20;;;-1.80;92.70;;;;;;4896179;29;20207;-56
2024/01/09 09:56:41;;;;;;;2.65;2.55;;;-1.80;92.60;;;;;;4896353;29;20176;-56
2024/01/09 09:59:10;;;;;;;2.35;2.25;;;-1.70;92.80;;;;;;4896214;29;20187;-56
2024/01/09 10:01:36;;;;;;;0.82;0.82;;;-1.60;92.80;;;;;;4896125;29;20567;-57
2024/01/09 10:04:08;;;;;;;2.30;1.40;;;-1.50;92.30;;;;;;4896105;29;20187;-56
2024/01/09 10:06:37;;;;;;;1.00;1.00;;;-1.60;92.10;;;;;;4896465;29;20933;-53
2024/01/09 10:09:05;;;;;;;1.15;1.05;;;-1.70;92.00;;;;;;4896417;29;20259;-55
2024/01/09 10:11:34;;;;;;;3.92;1.95;;;-1.80;92.30;;;;;;4896055;29;20183;-55
2024/01/09 10:13:59;;;;;;;1.90;1.80;;;-1.80;92.70;;;;;;4896525;29;20815;-57
2024/01/09 10:16:25;;;;;;;0.30;0.30;;;-1.80;92.90;;;;;;4896130;29;20171;-58
2024/01/09 10:18:55;;;;;;;4.00;1.90;;;-1.80;92.90;;;;;;4896028;29;20436;-57
2024/01/09 10:21:22;;;;;;;1.83;1.73;;;-1.80;92.90;;;;;;4895746;29;20168;-59
2024/01/09 10:23:48;;;;;;;3.90;3.60;;;-1.80;92.60;;;;;;4896228;29;20191;-61
2024/01/09 10:26:14;;;;;;;1.45;0.55;;;-1.70;92.30;;;;;;4909295;29;20191;-58
2024/01/09 10:28:41;;;;;;;1.90;1.80;;;-1.60;92.20;;;;;;4922504;23;20734;-59
2024/01/09 10:31:08;;;;;;;1.45;1.33;;;-1.60;92.20;;;;;;4953932;28;20170;-59
2024/01/09 10:33:39;;;;;;;3.72;0.93;;;-1.60;92.50;;;;;;4949883;29;20174;-61
2024/01/09 10:36:06;;;;;;;1.85;1.67;;;-1.70;91.90;;;;;;4937376;29;20166;-60
2024/01/09 10:38:32;;;;;;;2.25;1.00;;;-1.90;92.00;;;;;;4937283;29;20201;-60
2024/01/09 10:41:13;;;;;;;3.15;1.85;;;-2.10;92.30;;;;;;4936813;29;20558;-59
2024/01/09 10:43:39;;;;;;;1.08;1.08;;;-2.10;92.60;;;;;;4955454;29;20189;-58
2024/01/09 10:46:05;;;;;;;5.13;2.15;;;-2.00;92.50;;;;;;4956203;29;20174;-59
2024/01/09 10:48:33;;;;;;;1.63;1.50;;;-1.90;92.50;;;;;;4955916;29;20617;-59
2024/01/09 10:50:59;;;;;;;2.72;1.75;;;-1.90;92.60;;;;;;4955671;29;20786;-58
2024/01/09 10:53:26;;;;;;;3.25;1.58;;;-2.00;92.30;;;;;;4955889;28;20178;-59
2024/01/09 10:55:54;;;;;;;0.50;0.50;;;-2.00;92.50;;;;;;4955894;29;20674;-59
2024/01/09 10:58:21;;;;;;;0.40;0.40;;;-2.10;92.30;;;;;;4955892;29;20201;-57
2024/01/09 11:00:47;;;;;;;0.80;0.80;;;-2.20;92.40;;;;;;4917439;29;20175;-59
2024/01/09 11:03:14;;;;;;;2.25;2.15;;;-2.20;92.50;;;;;;4917518;29;20262;-58
2024/01/09 11:05:41;;;;;;;1.15;1.05;;;-2.30;92.70;;;;;;4955233;29;20201;-58
2024/01/09 11:08:12;;;;;;;1.80;1.70;;;-2.30;92.70;;;;;;4955797;28;20205;-58
2024/01/09 11:10:39;;;;;;;4.35;4.10;;;-2.30;93.00;;;;;;4955676;29;20658;-59
2024/01/09 11:13:06;;;;;;;8.85;1.65;;;-2.20;92.90;;;;;;4955465;29;20209;-58
2024/01/09 11:15:38;;;;;;;2.97;2.85;;;-2.10;92.90;;;;;;4924418;29;20202;-59
2024/01/09 11:18:06;;;;;;;2.28;2.17;;;-2.00;93.10;;;;;;4917466;29;20199;-59
2024/01/09 11:20:32;;;;;;;3.30;2.72;;;-1.80;92.80;;;;;;4917435;29;20178;-56
2024/01/09 11:22:58;;;;;;;2.25;2.15;;;-1.80;92.40;;;;;;4917367;29;20199;-56
2024/01/09 11:25:29;;;;;;;2.23;1.90;;;-1.90;92.40;;;;;;4922212;29;20225;-56
2024/01/09 11:27:55;;;;;;;0.75;0.75;;;-1.90;92.50;;;;;;4917289;29;20242;-56
2024/01/09 11:30:30;;;;;;;0.50;0.50;;;-1.80;92.30;;;;;;4917135;29;20680;-56
2024/01/09 11:32:56;;;;;;;4.43;2.35;;;-1.80;92.50;;;;;;4917116;29;20426;-56
2024/01/09 11:35:25;;;;;;;1.45;1.42;;;-1.90;92.10;;;;;;4917153;29;20207;-56
2024/01/09 11:37:51;;;;;;;2.90;2.70;;;-1.90;92.20;;;;;;4900084;29;20221;-56
2024/01/09 11:40:19;;;;;;;2.28;2.15;;;-1.90;92.10;;;;;;4916769;29;20179;-56
2024/01/09 11:42:47;;;;;;;1.92;1.52;;;-1.80;92.20;;;;;;4915863;29;20175;-56
2024/01/09 11:45:19;;;;;;;1.23;1.23;;;-2.00;92.20;;;;;;4917040;29;20198;-56
2024/01/09 11:47:44;;;;;;;3.10;2.65;;;-1.90;92.40;;;;;;4916998;29;20447;-56
2024/01/09 11:50:11;;;;;;;1.10;1.10;;;-1.90;92.20;;;;;;4916642;29;20183;-56
2024/01/09 11:52:39;;;;;;;1.70;1.60;;;-1.80;92.20;;;;;;4916692;29;20182;-56
2024/01/09 11:55:07;;;;;;;0.30;0.30;;;-1.80;92.00;;;;;;4916535;29;20218;-56
2024/01/09 11:57:34;;;;;;;3.40;3.20;;;-1.70;92.30;;;;;;4916621;29;20277;-56
2024/01/09 12:00:03;;;;;;;1.50;1.35;;;-1.60;92.10;;;;;;4919769;29;20183;-56
2024/01/09 12:02:28;;;;;;;4.53;1.92;;;-1.60;91.90;;;;;;4942779;29;20187;-56
2024/01/09 12:04:55;;;;;;;1.92;1.83;;;-1.60;91.70;;;;;;4935873;29;20695;-56
2024/01/09 12:07:21;;;;;;;2.60;2.50;;;-1.70;91.70;;;;;;4919056;29;20185;-55
2024/01/09 12:09:49;;;;;;;1.40;1.30;;;-1.60;91.60;;;;;;4935701;29;20417;-57
2024/01/09 12:12:22;;;;;;;2.30;2.20;;;-1.70;91.60;;;;;;4935769;29;20505;-57
2024/01/09 12:14:52;;;;;;;2.72;2.60;;;-1.70;91.80;;;;;;4935700;29;20217;-54
2024/01/09 12:17:27;;;;;;;7.03;3.65;;;-1.70;91.70;;;;;;4918797;29;20174;-57
2024/01/09 12:19:53;;;;;;;1.25;1.25;;;-1.60;92.00;;;;;;4935920;29;20185;-57
2024/01/09 12:22:22;;;;;;;2.83;2.03;;;-1.50;92.00;;;;;;4935461;29;20170;-56
2024/01/09 12:24:52;;;;;;;1.60;0.93;;;-2.10;91.60;;;;;;4935775;29;20302;-56
2024/01/09 12:27:20;;;;;;;2.33;2.10;;;-1.60;91.70;;;;;;4934152;29;20220;-58
2024/01/09 12:29:46;;;;;;;3.72;1.67;;;-1.50;91.80;;;;;;4935676;29;20179;-58
2024/01/09 12:32:13;;;;;;;2.25;1.92;;;-1.50;92.00;;;;;;4935183;29;20253;-58
2024/01/09 12:34:39;;;;;;;1.30;1.23;;;-1.40;92.00;;;;;;4935121;29;20269;-58
2024/01/09 12:37:08;;;;;;;3.05;1.35;;;-1.20;91.80;;;;;;4935541;29;20180;-58
2024/01/09 12:39:37;;;;;;;4.40;1.48;;;-1.20;91.40;;;;;;4918589;29;20678;-58
2024/01/09 12:42:08;;;;;;;1.95;1.88;;;-1.20;91.40;;;;;;4935166;29;20543;-56
2024/01/09 12:44:35;;;;;;;0.93;0.70;;;-1.30;91.20;;;;;;4935350;29;20190;-56